sensor_id;sensor_type;location;lat;lon;timestamp;temperature;humidity
55213;DHT22;41083;52.932;6.674;2023-01-16T00:00:47;5.60;99.90
55213;DHT22;41083;52.932;6.674;2023-01-16T00:03:13;5.60;99.90
55213;DHT22;41083;52.932;6.674;2023-01-16T00:05:38;5.60;99.90
55213;DHT22;41083;52.932;6.674;2023-01-16T00:08:04;5.60;99.90
55213;DHT22;41083;52.932;6.674;2023-01-16T00:10:30;5.50;99.90
55213;DHT22;41083;52.932;6.674;2023-01-16T00:12:55;5.60;99.90
55213;DHT22;41083;52.932;6.674;2023-01-16T00:15:21;5.50;99.90
55213;DHT22;41083;52.932;6.674;2023-01-16T00:17:46;5.50;99.90
55213;DHT22;41083;52.932;6.674;2023-01-16T00:20:13;5.50;99.90
55213;DHT22;41083;52.932;6.674;2023-01-16T00:22:39;5.50;99.90
55213;DHT22;41083;52.932;6.674;2023-01-16T00:25:05;5.40;99.90
55213;DHT22;41083;52.932;6.674;2023-01-16T00:27:31;5.40;99.90
55213;DHT22;41083;52.932;6.674;2023-01-16T00:29:56;5.40;99.90
55213;DHT22;41083;52.932;6.674;2023-01-16T00:32:22;5.40;99.90
55213;DHT22;41083;52.932;6.674;2023-01-16T00:34:47;5.30;99.90
55213;DHT22;41083;52.932;6.674;2023-01-16T00:37:13;5.30;99.90
55213;DHT22;41083;52.932;6.674;2023-01-16T00:39:38;5.30;99.90
55213;DHT22;41083;52.932;6.674;2023-01-16T00:42:05;5.30;99.90
55213;DHT22;41083;52.932;6.674;2023-01-16T00:44:31;5.20;99.90
55213;DHT22;41083;52.932;6.674;2023-01-16T00:46:57;5.20;99.90
55213;DHT22;41083;52.932;6.674;2023-01-16T00:49:22;5.20;99.90
55213;DHT22;41083;52.932;6.674;2023-01-16T00:51:48;5.20;99.90
55213;DHT22;41083;52.932;6.674;2023-01-16T00:54:14;5.20;99.90
55213;DHT22;41083;52.932;6.674;2023-01-16T00:56:39;5.20;99.90
55213;DHT22;41083;52.932;6.674;2023-01-16T00:59:05;5.20;99.90
55213;DHT22;41083;52.932;6.674;2023-01-16T01:01:31;5.20;99.90
55213;DHT22;41083;52.932;6.674;2023-01-16T01:03:58;5.30;99.90
55213;DHT22;41083;52.932;6.674;2023-01-16T01:06:25;5.20;99.90
55213;DHT22;41083;52.932;6.674;2023-01-16T01:08:50;5.20;99.90
55213;DHT22;41083;52.932;6.674;2023-01-16T01:11:16;5.20;99.90
55213;DHT22;41083;52.932;6.674;2023-01-16T01:13:42;5.20;99.90
55213;DHT22;41083;52.932;6.674;2023-01-16T01:16:09;5.20;99.90
55213;DHT22;41083;52.932;6.674;2023-01-16T01:18:35;5.20;99.90
55213;DHT22;41083;52.932;6.674;2023-01-16T01:21:01;5.10;99.90
55213;DHT22;41083;52.932;6.674;2023-01-16T01:23:27;5.10;99.90
55213;DHT22;41083;52.932;6.674;2023-01-16T01:25:52;5.10;99.90
55213;DHT22;41083;52.932;6.674;2023-01-16T01:28:18;5.10;99.90
55213;DHT22;41083;52.932;6.674;2023-01-16T01:30:44;5.10;99.90
55213;DHT22;41083;52.932;6.674;2023-01-16T01:33:10;5.20;99.90
55213;DHT22;41083;52.932;6.674;2023-01-16T01:35:37;5.20;99.90
55213;DHT22;41083;52.932;6.674;2023-01-16T01:38:02;5.20;99.90
55213;DHT22;41083;52.932;6.674;2023-01-16T01:40:28;5.20;99.90
55213;DHT22;41083;52.932;6.674;2023-01-16T01:42:54;5.20;99.90
55213;DHT22;41083;52.932;6.674;2023-01-16T01:45:22;5.20;99.90
55213;DHT22;41083;52.932;6.674;2023-01-16T01:50:40;5.30;99.90
55213;DHT22;41083;52.932;6.674;2023-01-16T01:53:29;5.30;99.90
55213;DHT22;41083;52.932;6.674;2023-01-16T01:55:57;5.30;99.90
55213;DHT22;41083;52.932;6.674;2023-01-16T01:58:26;5.30;99.90
55213;DHT22;41083;52.932;6.674;2023-01-16T02:00:57;5.40;99.90
55213;DHT22;41083;52.932;6.674;2023-01-16T02:03:34;5.40;99.90
55213;DHT22;41083;52.932;6.674;2023-01-16T02:06:06;5.40;99.90
55213;DHT22;41083;52.932;6.674;2023-01-16T02:08:35;5.40;99.90
55213;DHT22;41083;52.932;6.674;2023-01-16T02:11:06;5.40;99.90
55213;DHT22;41083;52.932;6.674;2023-01-16T02:13:32;5.40;99.90
55213;DHT22;41083;52.932;6.674;2023-01-16T02:15:58;5.40;99.90
55213;DHT22;41083;52.932;6.674;2023-01-16T02:18:42;5.40;99.90
55213;DHT22;41083;52.932;6.674;2023-01-16T02:30:35;5.40;99.90
55213;DHT22;41083;52.932;6.674;2023-01-16T02:33:46;5.40;99.90
55213;DHT22;41083;52.932;6.674;2023-01-16T02:49:55;5.50;99.90
55213;DHT22;41083;52.932;6.674;2023-01-16T02:52:31;5.50;99.90
55213;DHT22;41083;52.932;6.674;2023-01-16T02:55:07;5.50;99.90
55213;DHT22;41083;52.932;6.674;2023-01-16T02:57:40;5.50;99.90
55213;DHT22;41083;52.932;6.674;2023-01-16T03:00:07;5.60;99.90
55213;DHT22;41083;52.932;6.674;2023-01-16T03:02:34;5.60;99.90
55213;DHT22;41083;52.932;6.674;2023-01-16T03:05:00;5.50;99.90
55213;DHT22;41083;52.932;6.674;2023-01-16T03:13:30;5.50;99.90
55213;DHT22;41083;52.932;6.674;2023-01-16T03:16:14;5.50;99.90
55213;DHT22;41083;52.932;6.674;2023-01-16T03:27:07;5.40;99.90
55213;DHT22;41083;52.932;6.674;2023-01-16T03:30:13;5.40;99.90
55213;DHT22;41083;52.932;6.674;2023-01-16T03:32:43;5.40;99.90
55213;DHT22;41083;52.932;6.674;2023-01-16T03:35:25;5.40;99.90
55213;DHT22;41083;52.932;6.674;2023-01-16T03:37:56;5.40;99.90
55213;DHT22;41083;52.932;6.674;2023-01-16T03:40:26;5.40;99.90
55213;DHT22;41083;52.932;6.674;2023-01-16T03:43:10;5.40;99.90
55213;DHT22;41083;52.932;6.674;2023-01-16T03:45:41;5.40;99.90
55213;DHT22;41083;52.932;6.674;2023-01-16T03:50:41;5.40;99.90
55213;DHT22;41083;52.932;6.674;2023-01-16T03:53:11;5.40;99.90
55213;DHT22;41083;52.932;6.674;2023-01-16T03:55:46;5.40;99.90
55213;DHT22;41083;52.932;6.674;2023-01-16T03:58:30;5.40;99.90
55213;DHT22;41083;52.932;6.674;2023-01-16T04:01:22;5.40;99.90
55213;DHT22;41083;52.932;6.674;2023-01-16T04:06:24;5.40;99.90
55213;DHT22;41083;52.932;6.674;2023-01-16T04:08:53;5.50;99.90
55213;DHT22;41083;52.932;6.674;2023-01-16T04:11:21;5.50;99.90
55213;DHT22;41083;52.932;6.674;2023-01-16T04:13:50;5.40;99.90
55213;DHT22;41083;52.932;6.674;2023-01-16T04:16:17;5.40;99.90
55213;DHT22;41083;52.932;6.674;2023-01-16T04:18:44;5.40;99.90
55213;DHT22;41083;52.932;6.674;2023-01-16T04:21:11;5.40;99.90
55213;DHT22;41083;52.932;6.674;2023-01-16T04:23:37;5.40;99.90
55213;DHT22;41083;52.932;6.674;2023-01-16T04:26:02;5.40;99.90
55213;DHT22;41083;52.932;6.674;2023-01-16T04:28:28;5.40;99.90
55213;DHT22;41083;52.932;6.674;2023-01-16T04:30:54;5.40;99.90
55213;DHT22;41083;52.932;6.674;2023-01-16T04:33:19;5.40;99.90
55213;DHT22;41083;52.932;6.674;2023-01-16T04:35:45;5.40;99.90
55213;DHT22;41083;52.932;6.674;2023-01-16T04:38:11;5.40;99.90
55213;DHT22;41083;52.932;6.674;2023-01-16T04:40:38;5.30;99.90
55213;DHT22;41083;52.932;6.674;2023-01-16T04:43:03;5.40;99.90
55213;DHT22;41083;52.932;6.674;2023-01-16T04:45:29;5.40;99.90
55213;DHT22;41083;52.932;6.674;2023-01-16T04:47:54;5.40;99.90
55213;DHT22;41083;52.932;6.674;2023-01-16T04:50:20;5.40;99.90
55213;DHT22;41083;52.932;6.674;2023-01-16T04:52:46;5.50;99.90
55213;DHT22;41083;52.932;6.674;2023-01-16T04:55:12;5.50;99.90
55213;DHT22;41083;52.932;6.674;2023-01-16T04:57:38;5.50;99.90
55213;DHT22;41083;52.932;6.674;2023-01-16T05:00:05;5.40;99.90
55213;DHT22;41083;52.932;6.674;2023-01-16T05:02:32;5.40;99.90
55213;DHT22;41083;52.932;6.674;2023-01-16T05:04:57;5.50;99.90
55213;DHT22;41083;52.932;6.674;2023-01-16T05:07:23;5.50;99.90
55213;DHT22;41083;52.932;6.674;2023-01-16T05:09:51;5.50;99.90
55213;DHT22;41083;52.932;6.674;2023-01-16T05:12:17;5.50;99.90
55213;DHT22;41083;52.932;6.674;2023-01-16T05:14:43;5.50;99.90
55213;DHT22;41083;52.932;6.674;2023-01-16T05:17:09;5.60;99.90
55213;DHT22;41083;52.932;6.674;2023-01-16T05:19:34;5.50;99.90
55213;DHT22;41083;52.932;6.674;2023-01-16T05:22:00;5.50;99.90
55213;DHT22;41083;52.932;6.674;2023-01-16T05:24:26;5.60;99.90
55213;DHT22;41083;52.932;6.674;2023-01-16T05:26:51;5.60;99.90
55213;DHT22;41083;52.932;6.674;2023-01-16T05:29:17;5.50;99.90
55213;DHT22;41083;52.932;6.674;2023-01-16T05:31:43;5.50;99.90
55213;DHT22;41083;52.932;6.674;2023-01-16T05:34:09;5.50;99.90
55213;DHT22;41083;52.932;6.674;2023-01-16T05:36:35;5.50;99.90
55213;DHT22;41083;52.932;6.674;2023-01-16T05:39:01;5.40;99.90
55213;DHT22;41083;52.932;6.674;2023-01-16T05:41:30;5.40;99.90
55213;DHT22;41083;52.932;6.674;2023-01-16T05:43:55;5.40;99.90
55213;DHT22;41083;52.932;6.674;2023-01-16T05:46:21;5.40;99.90
55213;DHT22;41083;52.932;6.674;2023-01-16T05:48:47;5.30;99.90
55213;DHT22;41083;52.932;6.674;2023-01-16T05:51:12;5.30;99.90
55213;DHT22;41083;52.932;6.674;2023-01-16T05:53:38;5.30;99.90
55213;DHT22;41083;52.932;6.674;2023-01-16T05:56:08;5.20;99.90
55213;DHT22;41083;52.932;6.674;2023-01-16T05:58:34;5.20;99.90
55213;DHT22;41083;52.932;6.674;2023-01-16T06:01:00;5.20;99.90
55213;DHT22;41083;52.932;6.674;2023-01-16T06:03:26;5.20;99.90
55213;DHT22;41083;52.932;6.674;2023-01-16T06:05:51;5.20;99.90
55213;DHT22;41083;52.932;6.674;2023-01-16T06:08:17;5.30;99.90
55213;DHT22;41083;52.932;6.674;2023-01-16T06:10:43;5.30;99.90
55213;DHT22;41083;52.932;6.674;2023-01-16T06:13:10;5.30;99.90
55213;DHT22;41083;52.932;6.674;2023-01-16T06:15:36;5.30;99.90
55213;DHT22;41083;52.932;6.674;2023-01-16T06:18:01;5.30;99.90
55213;DHT22;41083;52.932;6.674;2023-01-16T06:20:27;5.30;99.90
55213;DHT22;41083;52.932;6.674;2023-01-16T06:22:53;5.30;99.90
55213;DHT22;41083;52.932;6.674;2023-01-16T06:25:19;5.30;99.90
55213;DHT22;41083;52.932;6.674;2023-01-16T06:27:51;5.20;99.90
55213;DHT22;41083;52.932;6.674;2023-01-16T06:30:17;5.20;99.90
55213;DHT22;41083;52.932;6.674;2023-01-16T06:32:43;5.20;99.90
55213;DHT22;41083;52.932;6.674;2023-01-16T06:35:09;5.20;99.90
55213;DHT22;41083;52.932;6.674;2023-01-16T06:37:34;5.20;99.90
55213;DHT22;41083;52.932;6.674;2023-01-16T06:40:00;5.20;99.90
55213;DHT22;41083;52.932;6.674;2023-01-16T06:42:27;5.10;99.90
55213;DHT22;41083;52.932;6.674;2023-01-16T06:44:52;5.10;99.90
55213;DHT22;41083;52.932;6.674;2023-01-16T06:47:18;5.10;99.90
55213;DHT22;41083;52.932;6.674;2023-01-16T06:49:43;5.10;99.90
55213;DHT22;41083;52.932;6.674;2023-01-16T06:52:09;5.20;99.90
55213;DHT22;41083;52.932;6.674;2023-01-16T06:54:35;5.20;99.90
55213;DHT22;41083;52.932;6.674;2023-01-16T06:57:00;5.20;99.90
55213;DHT22;41083;52.932;6.674;2023-01-16T06:59:26;5.20;99.90
55213;DHT22;41083;52.932;6.674;2023-01-16T07:01:51;5.10;99.90
55213;DHT22;41083;52.932;6.674;2023-01-16T07:04:17;5.10;99.90
55213;DHT22;41083;52.932;6.674;2023-01-16T07:06:43;5.10;99.90
55213;DHT22;41083;52.932;6.674;2023-01-16T07:09:11;5.10;99.90
55213;DHT22;41083;52.932;6.674;2023-01-16T07:11:37;5.10;99.90
55213;DHT22;41083;52.932;6.674;2023-01-16T07:14:02;5.10;99.90
55213;DHT22;41083;52.932;6.674;2023-01-16T07:16:47;5.10;99.90
55213;DHT22;41083;52.932;6.674;2023-01-16T07:19:30;5.10;99.90
55213;DHT22;41083;52.932;6.674;2023-01-16T07:22:16;5.10;99.90
55213;DHT22;41083;52.932;6.674;2023-01-16T07:25:01;5.00;99.90
55213;DHT22;41083;52.932;6.674;2023-01-16T07:27:27;5.00;99.90
55213;DHT22;41083;52.932;6.674;2023-01-16T07:29:53;5.00;99.90
55213;DHT22;41083;52.932;6.674;2023-01-16T07:32:19;5.00;99.90
55213;DHT22;41083;52.932;6.674;2023-01-16T07:34:45;5.00;99.90
55213;DHT22;41083;52.932;6.674;2023-01-16T07:37:11;5.00;99.90
55213;DHT22;41083;52.932;6.674;2023-01-16T07:39:37;5.00;99.90
55213;DHT22;41083;52.932;6.674;2023-01-16T07:42:07;5.00;99.90
55213;DHT22;41083;52.932;6.674;2023-01-16T07:44:33;5.00;99.90
55213;DHT22;41083;52.932;6.674;2023-01-16T07:46:59;5.00;99.90
55213;DHT22;41083;52.932;6.674;2023-01-16T07:49:24;5.00;99.90
55213;DHT22;41083;52.932;6.674;2023-01-16T07:51:50;5.00;99.90
55213;DHT22;41083;52.932;6.674;2023-01-16T07:54:16;5.00;99.90
55213;DHT22;41083;52.932;6.674;2023-01-16T07:56:41;5.00;99.90
55213;DHT22;41083;52.932;6.674;2023-01-16T07:59:07;5.00;99.90
55213;DHT22;41083;52.932;6.674;2023-01-16T08:01:33;5.00;99.90
55213;DHT22;41083;52.932;6.674;2023-01-16T08:03:59;5.00;99.90
55213;DHT22;41083;52.932;6.674;2023-01-16T08:06:24;5.00;99.90
55213;DHT22;41083;52.932;6.674;2023-01-16T08:08:50;5.00;99.90
55213;DHT22;41083;52.932;6.674;2023-01-16T08:11:16;5.00;99.90
55213;DHT22;41083;52.932;6.674;2023-01-16T08:14:01;5.00;99.90
55213;DHT22;41083;52.932;6.674;2023-01-16T08:16:27;5.00;99.90
55213;DHT22;41083;52.932;6.674;2023-01-16T08:18:52;5.00;99.90
55213;DHT22;41083;52.932;6.674;2023-01-16T08:21:18;5.00;99.90
55213;DHT22;41083;52.932;6.674;2023-01-16T08:23:44;5.00;99.90
55213;DHT22;41083;52.932;6.674;2023-01-16T08:26:11;4.90;99.90
55213;DHT22;41083;52.932;6.674;2023-01-16T08:28:37;5.00;99.90
55213;DHT22;41083;52.932;6.674;2023-01-16T08:31:09;4.90;99.90
55213;DHT22;41083;52.932;6.674;2023-01-16T08:33:37;4.90;99.90
55213;DHT22;41083;52.932;6.674;2023-01-16T08:36:05;5.00;99.90
55213;DHT22;41083;52.932;6.674;2023-01-16T08:38:31;5.00;99.90
55213;DHT22;41083;52.932;6.674;2023-01-16T08:40:57;5.00;99.90
55213;DHT22;41083;52.932;6.674;2023-01-16T08:43:23;5.00;99.90
55213;DHT22;41083;52.932;6.674;2023-01-16T08:46:20;5.00;99.90
55213;DHT22;41083;52.932;6.674;2023-01-16T08:49:09;5.00;99.90
55213;DHT22;41083;52.932;6.674;2023-01-16T08:51:54;5.00;99.90
55213;DHT22;41083;52.932;6.674;2023-01-16T08:54:20;5.00;99.90
55213;DHT22;41083;52.932;6.674;2023-01-16T08:56:45;5.10;99.90
55213;DHT22;41083;52.932;6.674;2023-01-16T08:59:11;5.10;99.90
55213;DHT22;41083;52.932;6.674;2023-01-16T09:01:38;5.10;99.90
55213;DHT22;41083;52.932;6.674;2023-01-16T09:04:05;5.10;99.90
55213;DHT22;41083;52.932;6.674;2023-01-16T09:06:30;5.10;99.90
55213;DHT22;41083;52.932;6.674;2023-01-16T09:08:56;5.10;99.90
55213;DHT22;41083;52.932;6.674;2023-01-16T09:11:22;5.10;99.90
55213;DHT22;41083;52.932;6.674;2023-01-16T09:14:06;5.10;99.90
55213;DHT22;41083;52.932;6.674;2023-01-16T09:16:31;5.10;99.90
55213;DHT22;41083;52.932;6.674;2023-01-16T09:18:57;5.10;99.90
55213;DHT22;41083;52.932;6.674;2023-01-16T09:21:22;5.10;99.90
55213;DHT22;41083;52.932;6.674;2023-01-16T09:23:50;5.10;99.90
55213;DHT22;41083;52.932;6.674;2023-01-16T09:26:16;5.10;99.90
55213;DHT22;41083;52.932;6.674;2023-01-16T09:28:42;5.10;99.90
55213;DHT22;41083;52.932;6.674;2023-01-16T09:31:08;5.10;99.90
55213;DHT22;41083;52.932;6.674;2023-01-16T09:33:34;5.20;99.90
55213;DHT22;41083;52.932;6.674;2023-01-16T09:36:00;5.10;99.90
55213;DHT22;41083;52.932;6.674;2023-01-16T09:38:25;5.20;99.90
55213;DHT22;41083;52.932;6.674;2023-01-16T09:40:55;5.20;99.90
55213;DHT22;41083;52.932;6.674;2023-01-16T09:43:36;5.20;99.90
55213;DHT22;41083;52.932;6.674;2023-01-16T09:46:24;5.20;99.90
55213;DHT22;41083;52.932;6.674;2023-01-16T09:49:04;5.20;99.90
55213;DHT22;41083;52.932;6.674;2023-01-16T09:51:36;5.20;99.90
55213;DHT22;41083;52.932;6.674;2023-01-16T09:54:16;5.20;99.90
55213;DHT22;41083;52.932;6.674;2023-01-16T09:57:03;5.20;99.90
55213;DHT22;41083;52.932;6.674;2023-01-16T09:59:54;5.20;99.90
55213;DHT22;41083;52.932;6.674;2023-01-16T10:02:40;5.20;99.90
55213;DHT22;41083;52.932;6.674;2023-01-16T10:05:06;5.20;99.90
55213;DHT22;41083;52.932;6.674;2023-01-16T10:07:56;5.20;99.90
55213;DHT22;41083;52.932;6.674;2023-01-16T10:10:48;5.20;99.90
55213;DHT22;41083;52.932;6.674;2023-01-16T10:19:13;5.20;99.90
55213;DHT22;41083;52.932;6.674;2023-01-16T10:27:33;5.10;99.90
55213;DHT22;41083;52.932;6.674;2023-01-16T10:30:13;5.10;99.90
55213;DHT22;41083;52.932;6.674;2023-01-16T10:33:13;5.10;99.90
55213;DHT22;41083;52.932;6.674;2023-01-16T10:35:43;5.10;99.90
55213;DHT22;41083;52.932;6.674;2023-01-16T10:38:35;5.10;99.90
55213;DHT22;41083;52.932;6.674;2023-01-16T10:41:32;5.00;99.90
55213;DHT22;41083;52.932;6.674;2023-01-16T10:44:31;5.00;99.90
55213;DHT22;41083;52.932;6.674;2023-01-16T10:47:18;5.00;99.90
55213;DHT22;41083;52.932;6.674;2023-01-16T10:50:04;4.90;99.90
55213;DHT22;41083;52.932;6.674;2023-01-16T10:52:31;4.90;99.90
55213;DHT22;41083;52.932;6.674;2023-01-16T10:54:57;4.90;99.90
55213;DHT22;41083;52.932;6.674;2023-01-16T10:57:24;4.90;99.90
55213;DHT22;41083;52.932;6.674;2023-01-16T10:59:51;4.90;99.90
55213;DHT22;41083;52.932;6.674;2023-01-16T11:02:38;4.80;99.90
55213;DHT22;41083;52.932;6.674;2023-01-16T11:07:54;4.80;99.90
55213;DHT22;41083;52.932;6.674;2023-01-16T11:10:21;4.80;99.90
55213;DHT22;41083;52.932;6.674;2023-01-16T11:12:47;4.80;99.90
55213;DHT22;41083;52.932;6.674;2023-01-16T11:15:31;4.80;99.90
55213;DHT22;41083;52.932;6.674;2023-01-16T11:18:35;4.80;99.90
55213;DHT22;41083;52.932;6.674;2023-01-16T11:21:18;4.90;99.90
55213;DHT22;41083;52.932;6.674;2023-01-16T11:23:48;4.90;99.90
55213;DHT22;41083;52.932;6.674;2023-01-16T11:26:14;4.80;99.90
55213;DHT22;41083;52.932;6.674;2023-01-16T11:28:45;4.90;99.90
55213;DHT22;41083;52.932;6.674;2023-01-16T11:31:23;4.90;99.90
55213;DHT22;41083;52.932;6.674;2023-01-16T11:33:53;4.90;99.90
55213;DHT22;41083;52.932;6.674;2023-01-16T11:36:24;4.90;99.90
55213;DHT22;41083;52.932;6.674;2023-01-16T11:38:51;4.90;99.90
55213;DHT22;41083;52.932;6.674;2023-01-16T11:41:27;4.90;99.90
55213;DHT22;41083;52.932;6.674;2023-01-16T11:44:12;4.90;99.90
55213;DHT22;41083;52.932;6.674;2023-01-16T11:46:58;4.90;99.90
55213;DHT22;41083;52.932;6.674;2023-01-16T11:49:28;4.90;99.90
55213;DHT22;41083;52.932;6.674;2023-01-16T11:51:58;4.90;99.90
55213;DHT22;41083;52.932;6.674;2023-01-16T11:54:33;5.00;99.90
55213;DHT22;41083;52.932;6.674;2023-01-16T12:00:07;5.00;99.90
55213;DHT22;41083;52.932;6.674;2023-01-16T12:08:49;5.00;99.90
55213;DHT22;41083;52.932;6.674;2023-01-16T12:11:37;5.00;99.90
55213;DHT22;41083;52.932;6.674;2023-01-16T12:17:13;5.00;99.90
55213;DHT22;41083;52.932;6.674;2023-01-16T12:19:56;5.00;99.90
55213;DHT22;41083;52.932;6.674;2023-01-16T12:39:18;5.20;99.90
55213;DHT22;41083;52.932;6.674;2023-01-16T12:42:01;5.20;99.90
55213;DHT22;41083;52.932;6.674;2023-01-16T12:48:00;5.20;99.90
55213;DHT22;41083;52.932;6.674;2023-01-16T12:50:55;5.30;99.90
55213;DHT22;41083;52.932;6.674;2023-01-16T12:56:24;5.20;99.90
55213;DHT22;41083;52.932;6.674;2023-01-16T12:59:04;5.30;99.90
55213;DHT22;41083;52.932;6.674;2023-01-16T13:01:40;5.20;99.90
55213;DHT22;41083;52.932;6.674;2023-01-16T13:04:11;5.30;99.90
55213;DHT22;41083;52.932;6.674;2023-01-16T13:06:44;5.30;99.90
55213;DHT22;41083;52.932;6.674;2023-01-16T13:09:36;5.20;99.90
55213;DHT22;41083;52.932;6.674;2023-01-16T13:12:10;5.30;99.90
55213;DHT22;41083;52.932;6.674;2023-01-16T13:15:01;5.30;99.90
55213;DHT22;41083;52.932;6.674;2023-01-16T13:20:36;5.30;99.90
55213;DHT22;41083;52.932;6.674;2023-01-16T13:23:06;5.30;99.90
55213;DHT22;41083;52.932;6.674;2023-01-16T13:25:48;5.30;99.90
55213;DHT22;41083;52.932;6.674;2023-01-16T13:31:03;5.30;99.90
55213;DHT22;41083;52.932;6.674;2023-01-16T13:33:32;5.40;99.90
55213;DHT22;41083;52.932;6.674;2023-01-16T13:41:50;5.40;99.90
55213;DHT22;41083;52.932;6.674;2023-01-16T13:44:27;5.50;99.90
55213;DHT22;41083;52.932;6.674;2023-01-16T13:47:16;5.50;99.90
55213;DHT22;41083;52.932;6.674;2023-01-16T13:49:49;5.50;99.90
55213;DHT22;41083;52.932;6.674;2023-01-16T13:52:20;5.50;99.90
55213;DHT22;41083;52.932;6.674;2023-01-16T13:54:48;5.50;99.90
55213;DHT22;41083;52.932;6.674;2023-01-16T13:57:17;5.50;99.90
55213;DHT22;41083;52.932;6.674;2023-01-16T14:10:43;5.60;99.90
55213;DHT22;41083;52.932;6.674;2023-01-16T14:16:00;5.60;99.90
55213;DHT22;41083;52.932;6.674;2023-01-16T14:19:00;5.60;99.90
55213;DHT22;41083;52.932;6.674;2023-01-16T14:21:43;5.60;99.90
55213;DHT22;41083;52.932;6.674;2023-01-16T14:24:47;5.60;99.90
55213;DHT22;41083;52.932;6.674;2023-01-16T14:27:19;5.60;99.90
55213;DHT22;41083;52.932;6.674;2023-01-16T14:30:04;5.60;99.90
55213;DHT22;41083;52.932;6.674;2023-01-16T14:32:32;5.60;99.90
55213;DHT22;41083;52.932;6.674;2023-01-16T14:35:15;5.60;99.90
55213;DHT22;41083;52.932;6.674;2023-01-16T14:37:45;5.60;99.90
55213;DHT22;41083;52.932;6.674;2023-01-16T14:40:18;5.60;99.90
55213;DHT22;41083;52.932;6.674;2023-01-16T14:42:55;5.70;99.90
55213;DHT22;41083;52.932;6.674;2023-01-16T14:45:41;5.70;99.90
55213;DHT22;41083;52.932;6.674;2023-01-16T14:48:39;5.70;99.90
55213;DHT22;41083;52.932;6.674;2023-01-16T14:51:31;5.70;99.90
55213;DHT22;41083;52.932;6.674;2023-01-16T14:54:28;5.70;99.90
55213;DHT22;41083;52.932;6.674;2023-01-16T14:57:17;5.70;99.90
55213;DHT22;41083;52.932;6.674;2023-01-16T15:00:25;5.70;99.90
55213;DHT22;41083;52.932;6.674;2023-01-16T15:03:00;5.70;99.90
55213;DHT22;41083;52.932;6.674;2023-01-16T15:05:40;5.70;99.90
55213;DHT22;41083;52.932;6.674;2023-01-16T15:08:29;5.70;99.90
55213;DHT22;41083;52.932;6.674;2023-01-16T15:10:59;5.70;99.90
55213;DHT22;41083;52.932;6.674;2023-01-16T15:13:45;5.70;99.90
55213;DHT22;41083;52.932;6.674;2023-01-16T15:16:29;5.70;99.90
55213;DHT22;41083;52.932;6.674;2023-01-16T15:19:21;5.70;99.90
55213;DHT22;41083;52.932;6.674;2023-01-16T15:22:19;5.70;99.90
55213;DHT22;41083;52.932;6.674;2023-01-16T15:24:59;5.70;99.90
55213;DHT22;41083;52.932;6.674;2023-01-16T15:27:32;5.70;99.90
55213;DHT22;41083;52.932;6.674;2023-01-16T15:30:12;5.70;99.90
55213;DHT22;41083;52.932;6.674;2023-01-16T15:32:56;5.70;99.90
55213;DHT22;41083;52.932;6.674;2023-01-16T15:35:54;5.70;99.90
55213;DHT22;41083;52.932;6.674;2023-01-16T15:38:20;5.70;99.90
55213;DHT22;41083;52.932;6.674;2023-01-16T15:40:51;5.70;99.90
55213;DHT22;41083;52.932;6.674;2023-01-16T15:43:17;5.70;99.90
55213;DHT22;41083;52.932;6.674;2023-01-16T15:46:11;5.70;99.90
55213;DHT22;41083;52.932;6.674;2023-01-16T15:49:19;5.70;99.90
55213;DHT22;41083;52.932;6.674;2023-01-16T15:51:52;5.70;99.90
55213;DHT22;41083;52.932;6.674;2023-01-16T15:54:18;5.70;99.90
55213;DHT22;41083;52.932;6.674;2023-01-16T15:56:45;5.70;99.90
55213;DHT22;41083;52.932;6.674;2023-01-16T15:59:28;5.70;99.90
55213;DHT22;41083;52.932;6.674;2023-01-16T16:02:23;5.70;99.90
55213;DHT22;41083;52.932;6.674;2023-01-16T16:04:55;5.70;99.90
55213;DHT22;41083;52.932;6.674;2023-01-16T16:07:22;5.70;99.90
55213;DHT22;41083;52.932;6.674;2023-01-16T16:09:52;5.70;99.90
55213;DHT22;41083;52.932;6.674;2023-01-16T16:12:19;5.70;99.90
55213;DHT22;41083;52.932;6.674;2023-01-16T16:14:46;5.70;99.90
55213;DHT22;41083;52.932;6.674;2023-01-16T16:17:32;5.70;99.90
55213;DHT22;41083;52.932;6.674;2023-01-16T16:20:34;5.70;99.90
55213;DHT22;41083;52.932;6.674;2023-01-16T16:25:34;5.70;99.90
55213;DHT22;41083;52.932;6.674;2023-01-16T16:28:03;5.70;99.90
55213;DHT22;41083;52.932;6.674;2023-01-16T16:30:29;5.70;99.90
55213;DHT22;41083;52.932;6.674;2023-01-16T16:32:55;5.70;99.90
55213;DHT22;41083;52.932;6.674;2023-01-16T16:35:32;5.70;99.90
55213;DHT22;41083;52.932;6.674;2023-01-16T16:38:00;5.70;99.90
55213;DHT22;41083;52.932;6.674;2023-01-16T16:40:25;5.70;99.90
55213;DHT22;41083;52.932;6.674;2023-01-16T16:42:56;5.60;99.90
55213;DHT22;41083;52.932;6.674;2023-01-16T16:45:27;5.60;99.90
55213;DHT22;41083;52.932;6.674;2023-01-16T16:48:26;5.60;99.90
55213;DHT22;41083;52.932;6.674;2023-01-16T16:51:19;5.60;99.90
55213;DHT22;41083;52.932;6.674;2023-01-16T16:53:47;5.60;99.90
55213;DHT22;41083;52.932;6.674;2023-01-16T16:56:18;5.60;99.90
55213;DHT22;41083;52.932;6.674;2023-01-16T16:58:46;5.60;99.90
55213;DHT22;41083;52.932;6.674;2023-01-16T17:01:14;5.60;99.90
55213;DHT22;41083;52.932;6.674;2023-01-16T17:03:40;5.60;99.90
55213;DHT22;41083;52.932;6.674;2023-01-16T17:06:21;5.60;99.90
55213;DHT22;41083;52.932;6.674;2023-01-16T17:08:48;5.60;99.90
55213;DHT22;41083;52.932;6.674;2023-01-16T17:11:14;5.60;99.90
55213;DHT22;41083;52.932;6.674;2023-01-16T17:13:40;5.60;99.90
55213;DHT22;41083;52.932;6.674;2023-01-16T17:16:17;5.60;99.90
55213;DHT22;41083;52.932;6.674;2023-01-16T17:18:44;5.60;99.90
55213;DHT22;41083;52.932;6.674;2023-01-16T17:21:14;5.70;99.90
55213;DHT22;41083;52.932;6.674;2023-01-16T17:23:40;5.70;99.90
55213;DHT22;41083;52.932;6.674;2023-01-16T17:26:06;5.70;99.90
55213;DHT22;41083;52.932;6.674;2023-01-16T17:28:34;5.70;99.90
55213;DHT22;41083;52.932;6.674;2023-01-16T17:30:59;5.70;99.90
55213;DHT22;41083;52.932;6.674;2023-01-16T17:33:25;5.70;99.90
55213;DHT22;41083;52.932;6.674;2023-01-16T17:35:52;5.70;99.90
55213;DHT22;41083;52.932;6.674;2023-01-16T17:38:38;5.70;99.90
55213;DHT22;41083;52.932;6.674;2023-01-16T17:41:04;5.70;99.90
55213;DHT22;41083;52.932;6.674;2023-01-16T17:43:32;5.70;99.90
55213;DHT22;41083;52.932;6.674;2023-01-16T17:46:18;5.70;99.90
55213;DHT22;41083;52.932;6.674;2023-01-16T17:48:48;5.70;99.90
55213;DHT22;41083;52.932;6.674;2023-01-16T17:51:14;5.70;99.90
55213;DHT22;41083;52.932;6.674;2023-01-16T17:53:39;5.70;99.90
55213;DHT22;41083;52.932;6.674;2023-01-16T17:56:07;5.70;99.90
55213;DHT22;41083;52.932;6.674;2023-01-16T17:58:34;5.70;99.90
55213;DHT22;41083;52.932;6.674;2023-01-16T18:01:22;5.70;99.90
55213;DHT22;41083;52.932;6.674;2023-01-16T18:03:49;5.70;99.90
55213;DHT22;41083;52.932;6.674;2023-01-16T18:06:36;5.70;99.90
55213;DHT22;41083;52.932;6.674;2023-01-16T18:09:02;5.70;99.90
55213;DHT22;41083;52.932;6.674;2023-01-16T18:11:32;5.70;99.90
55213;DHT22;41083;52.932;6.674;2023-01-16T18:14:16;5.70;99.90
55213;DHT22;41083;52.932;6.674;2023-01-16T18:17:00;5.70;99.90
55213;DHT22;41083;52.932;6.674;2023-01-16T18:19:44;5.70;99.90